sensor_id;sensor_type;location;lat;lon;timestamp;P1;durP1;ratioP1;P2;durP2;ratioP2
4138;SDS011;2083;51.034;6.996;2022-10-04T00:01:21;12.07;;;6.70;;
4138;SDS011;2083;51.034;6.996;2022-10-04T00:03:48;7.13;;;6.63;;
4138;SDS011;2083;51.034;6.996;2022-10-04T00:06:17;7.53;;;6.47;;
4138;SDS011;2083;51.034;6.996;2022-10-04T00:08:46;10.00;;;6.57;;
4138;SDS011;2083;51.034;6.996;2022-10-04T00:11:21;9.43;;;6.87;;
4138;SDS011;2083;51.034;6.996;2022-10-04T00:13:54;7.07;;;6.47;;
4138;SDS011;2083;51.034;6.996;2022-10-04T00:16:22;12.13;;;6.80;;
4138;SDS011;2083;51.034;6.996;2022-10-04T00:18:59;8.10;;;6.33;;
4138;SDS011;2083;51.034;6.996;2022-10-04T00:21:25;20.60;;;6.27;;
4138;SDS011;2083;51.034;6.996;2022-10-04T00:24:18;10.43;;;7.03;;
4138;SDS011;2083;51.034;6.996;2022-10-04T00:29:36;9.70;;;6.83;;
4138;SDS011;2083;51.034;6.996;2022-10-04T00:37:01;13.17;;;6.50;;
4138;SDS011;2083;51.034;6.996;2022-10-04T00:44:43;8.37;;;7.43;;
4138;SDS011;2083;51.034;6.996;2022-10-04T00:47:13;7.67;;;6.90;;
4138;SDS011;2083;51.034;6.996;2022-10-04T00:49:41;8.10;;;6.17;;
4138;SDS011;2083;51.034;6.996;2022-10-04T00:52:24;11.80;;;6.47;;
4138;SDS011;2083;51.034;6.996;2022-10-04T00:54:59;9.47;;;6.23;;
4138;SDS011;2083;51.034;6.996;2022-10-04T00:57:28;9.43;;;6.43;;
4138;SDS011;2083;51.034;6.996;2022-10-04T00:59:58;6.27;;;5.67;;
4138;SDS011;2083;51.034;6.996;2022-10-04T01:02:29;10.70;;;7.37;;
4138;SDS011;2083;51.034;6.996;2022-10-04T01:07:34;9.63;;;6.83;;
4138;SDS011;2083;51.034;6.996;2022-10-04T01:12:49;6.83;;;6.20;;
4138;SDS011;2083;51.034;6.996;2022-10-04T01:18:05;7.17;;;5.93;;
4138;SDS011;2083;51.034;6.996;2022-10-04T01:20:33;6.43;;;5.60;;
4138;SDS011;2083;51.034;6.996;2022-10-04T01:23:01;6.37;;;5.97;;
4138;SDS011;2083;51.034;6.996;2022-10-04T01:25:44;10.47;;;5.80;;
4138;SDS011;2083;51.034;6.996;2022-10-04T01:28:10;9.03;;;6.90;;
4138;SDS011;2083;51.034;6.996;2022-10-04T01:30:36;6.77;;;6.23;;
4138;SDS011;2083;51.034;6.996;2022-10-04T01:33:02;6.20;;;5.70;;
4138;SDS011;2083;51.034;6.996;2022-10-04T01:35:30;5.87;;;5.57;;
4138;SDS011;2083;51.034;6.996;2022-10-04T01:37:59;6.10;;;5.30;;
4138;SDS011;2083;51.034;6.996;2022-10-04T01:40:26;7.17;;;6.57;;
4138;SDS011;2083;51.034;6.996;2022-10-04T01:42:52;6.53;;;5.70;;
4138;SDS011;2083;51.034;6.996;2022-10-04T01:45:22;6.37;;;5.90;;
4138;SDS011;2083;51.034;6.996;2022-10-04T01:47:52;5.90;;;5.47;;
4138;SDS011;2083;51.034;6.996;2022-10-04T01:50:33;6.90;;;6.03;;
4138;SDS011;2083;51.034;6.996;2022-10-04T01:53:05;9.27;;;6.00;;
4138;SDS011;2083;51.034;6.996;2022-10-04T01:55:35;8.27;;;5.60;;
4138;SDS011;2083;51.034;6.996;2022-10-04T01:58:09;8.10;;;5.73;;
4138;SDS011;2083;51.034;6.996;2022-10-04T02:00:37;9.47;;;6.43;;
4138;SDS011;2083;51.034;6.996;2022-10-04T02:03:10;6.70;;;6.00;;
4138;SDS011;2083;51.034;6.996;2022-10-04T02:05:40;4.70;;;4.50;;
4138;SDS011;2083;51.034;6.996;2022-10-04T02:08:08;8.67;;;6.10;;
4138;SDS011;2083;51.034;6.996;2022-10-04T02:10:35;6.07;;;5.60;;
4138;SDS011;2083;51.034;6.996;2022-10-04T02:13:04;5.17;;;4.77;;
4138;SDS011;2083;51.034;6.996;2022-10-04T02:15:34;6.20;;;5.70;;
4138;SDS011;2083;51.034;6.996;2022-10-04T02:18:00;6.20;;;5.60;;
4138;SDS011;2083;51.034;6.996;2022-10-04T02:20:29;6.90;;;6.40;;
4138;SDS011;2083;51.034;6.996;2022-10-04T02:22:57;5.33;;;4.83;;
4138;SDS011;2083;51.034;6.996;2022-10-04T02:25:27;4.70;;;4.30;;
4138;SDS011;2083;51.034;6.996;2022-10-04T02:27:53;5.33;;;5.13;;
4138;SDS011;2083;51.034;6.996;2022-10-04T02:30:19;7.20;;;5.77;;
4138;SDS011;2083;51.034;6.996;2022-10-04T02:32:45;5.60;;;5.30;;
4138;SDS011;2083;51.034;6.996;2022-10-04T02:35:28;4.90;;;4.47;;
4138;SDS011;2083;51.034;6.996;2022-10-04T02:37:58;6.30;;;5.53;;
4138;SDS011;2083;51.034;6.996;2022-10-04T02:40:28;6.27;;;5.77;;
4138;SDS011;2083;51.034;6.996;2022-10-04T02:45:25;8.63;;;5.90;;
4138;SDS011;2083;51.034;6.996;2022-10-04T02:47:56;7.93;;;6.30;;
4138;SDS011;2083;51.034;6.996;2022-10-04T02:50:30;5.83;;;4.97;;
4138;SDS011;2083;51.034;6.996;2022-10-04T02:53:03;5.73;;;5.43;;
4138;SDS011;2083;51.034;6.996;2022-10-04T02:55:35;6.03;;;5.53;;
4138;SDS011;2083;51.034;6.996;2022-10-04T02:58:06;5.87;;;5.60;;
4138;SDS011;2083;51.034;6.996;2022-10-04T03:00:34;5.37;;;5.07;;
4138;SDS011;2083;51.034;6.996;2022-10-04T03:03:18;6.23;;;4.37;;
4138;SDS011;2083;51.034;6.996;2022-10-04T03:08:20;12.60;;;6.37;;
4138;SDS011;2083;51.034;6.996;2022-10-04T03:10:46;6.47;;;5.87;;
4138;SDS011;2083;51.034;6.996;2022-10-04T03:13:13;10.83;;;5.50;;
4138;SDS011;2083;51.034;6.996;2022-10-04T03:15:40;11.73;;;4.57;;
4138;SDS011;2083;51.034;6.996;2022-10-04T03:18:07;10.30;;;5.50;;
4138;SDS011;2083;51.034;6.996;2022-10-04T03:20:37;6.50;;;5.90;;
4138;SDS011;2083;51.034;6.996;2022-10-04T03:23:04;5.67;;;5.17;;
4138;SDS011;2083;51.034;6.996;2022-10-04T03:25:37;6.50;;;5.10;;
4138;SDS011;2083;51.034;6.996;2022-10-04T03:28:06;6.73;;;6.13;;
4138;SDS011;2083;51.034;6.996;2022-10-04T03:30:32;5.47;;;5.17;;
4138;SDS011;2083;51.034;6.996;2022-10-04T03:32:59;4.97;;;4.73;;
4138;SDS011;2083;51.034;6.996;2022-10-04T03:37:50;5.40;;;4.90;;
4138;SDS011;2083;51.034;6.996;2022-10-04T03:40:16;6.30;;;5.90;;
4138;SDS011;2083;51.034;6.996;2022-10-04T03:42:44;11.27;;;6.50;;
4138;SDS011;2083;51.034;6.996;2022-10-04T03:45:13;8.83;;;5.60;;
4138;SDS011;2083;51.034;6.996;2022-10-04T03:47:41;7.40;;;5.83;;
4138;SDS011;2083;51.034;6.996;2022-10-04T03:50:14;5.00;;;4.50;;
4138;SDS011;2083;51.034;6.996;2022-10-04T03:52:47;5.43;;;4.87;;
4138;SDS011;2083;51.034;6.996;2022-10-04T03:55:14;4.60;;;4.30;;
4138;SDS011;2083;51.034;6.996;2022-10-04T03:57:42;5.50;;;5.00;;
4138;SDS011;2083;51.034;6.996;2022-10-04T04:00:08;5.40;;;4.97;;
4138;SDS011;2083;51.034;6.996;2022-10-04T04:07:40;3.50;;;3.20;;
4138;SDS011;2083;51.034;6.996;2022-10-04T04:10:20;4.87;;;4.47;;
4138;SDS011;2083;51.034;6.996;2022-10-04T04:15:20;4.37;;;4.07;;
4138;SDS011;2083;51.034;6.996;2022-10-04T04:17:46;4.90;;;4.50;;
4138;SDS011;2083;51.034;6.996;2022-10-04T04:22:42;6.37;;;5.97;;
4138;SDS011;2083;51.034;6.996;2022-10-04T04:25:10;7.53;;;4.70;;
4138;SDS011;2083;51.034;6.996;2022-10-04T04:27:38;5.80;;;5.30;;
4138;SDS011;2083;51.034;6.996;2022-10-04T04:30:06;4.43;;;4.13;;
4138;SDS011;2083;51.034;6.996;2022-10-04T04:32:35;6.20;;;5.70;;
4138;SDS011;2083;51.034;6.996;2022-10-04T04:35:04;6.87;;;4.77;;
4138;SDS011;2083;51.034;6.996;2022-10-04T04:37:35;5.03;;;4.83;;
4138;SDS011;2083;51.034;6.996;2022-10-04T04:40:17;4.40;;;4.10;;
4138;SDS011;2083;51.034;6.996;2022-10-04T04:42:43;5.27;;;4.97;;
4138;SDS011;2083;51.034;6.996;2022-10-04T04:45:14;6.03;;;5.60;;
4138;SDS011;2083;51.034;6.996;2022-10-04T04:47:48;5.37;;;5.07;;
4138;SDS011;2083;51.034;6.996;2022-10-04T04:52:48;6.33;;;5.50;;
4138;SDS011;2083;51.034;6.996;2022-10-04T04:55:19;7.87;;;4.53;;
4138;SDS011;2083;51.034;6.996;2022-10-04T04:57:46;5.60;;;5.10;;
4138;SDS011;2083;51.034;6.996;2022-10-04T05:00:18;5.70;;;5.40;;
4138;SDS011;2083;51.034;6.996;2022-10-04T05:02:51;4.77;;;4.37;;
4138;SDS011;2083;51.034;6.996;2022-10-04T05:05:22;9.40;;;5.00;;
4138;SDS011;2083;51.034;6.996;2022-10-04T05:07:49;3.97;;;3.80;;
4138;SDS011;2083;51.034;6.996;2022-10-04T05:10:33;4.83;;;4.63;;
4138;SDS011;2083;51.034;6.996;2022-10-04T05:12:59;4.97;;;4.53;;
4138;SDS011;2083;51.034;6.996;2022-10-04T05:15:33;8.70;;;5.13;;
4138;SDS011;2083;51.034;6.996;2022-10-04T05:18:00;9.33;;;4.73;;
4138;SDS011;2083;51.034;6.996;2022-10-04T05:20:26;5.33;;;5.03;;
4138;SDS011;2083;51.034;6.996;2022-10-04T05:22:53;4.20;;;4.00;;
4138;SDS011;2083;51.034;6.996;2022-10-04T05:25:26;6.03;;;4.20;;
4138;SDS011;2083;51.034;6.996;2022-10-04T05:27:53;4.80;;;3.20;;
4138;SDS011;2083;51.034;6.996;2022-10-04T05:35:27;7.73;;;4.63;;
4138;SDS011;2083;51.034;6.996;2022-10-04T05:40:26;2.23;;;2.23;;
4138;SDS011;2083;51.034;6.996;2022-10-04T05:42:54;11.80;;;5.33;;
4138;SDS011;2083;51.034;6.996;2022-10-04T06:11:11;4.83;;;4.53;;
4138;SDS011;2083;51.034;6.996;2022-10-04T06:13:53;5.60;;;5.30;;
4138;SDS011;2083;51.034;6.996;2022-10-04T06:16:28;3.53;;;3.27;;
4138;SDS011;2083;51.034;6.996;2022-10-04T06:21:28;6.00;;;4.97;;
4138;SDS011;2083;51.034;6.996;2022-10-04T06:26:28;5.20;;;4.80;;
4138;SDS011;2083;51.034;6.996;2022-10-04T06:28:59;6.67;;;6.03;;
4138;SDS011;2083;51.034;6.996;2022-10-04T06:31:31;6.33;;;5.73;;
4138;SDS011;2083;51.034;6.996;2022-10-04T06:34:10;6.53;;;6.17;;
4138;SDS011;2083;51.034;6.996;2022-10-04T06:49:53;6.30;;;5.70;;
4138;SDS011;2083;51.034;6.996;2022-10-04T06:52:25;5.37;;;5.00;;
4138;SDS011;2083;51.034;6.996;2022-10-04T06:54:59;10.40;;;6.60;;
4138;SDS011;2083;51.034;6.996;2022-10-04T07:02:32;7.53;;;6.20;;
4138;SDS011;2083;51.034;6.996;2022-10-04T07:07:39;6.83;;;6.27;;
4138;SDS011;2083;51.034;6.996;2022-10-04T07:12:41;7.00;;;5.17;;
4138;SDS011;2083;51.034;6.996;2022-10-04T07:15:18;4.40;;;3.90;;
4138;SDS011;2083;51.034;6.996;2022-10-04T07:17:44;8.90;;;6.07;;
4138;SDS011;2083;51.034;6.996;2022-10-04T07:20:16;8.00;;;4.50;;
4138;SDS011;2083;51.034;6.996;2022-10-04T07:22:45;6.80;;;3.73;;
4138;SDS011;2083;51.034;6.996;2022-10-04T07:25:20;8.77;;;6.17;;
4138;SDS011;2083;51.034;6.996;2022-10-04T07:30:16;6.77;;;5.13;;
4138;SDS011;2083;51.034;6.996;2022-10-04T07:32:45;20.27;;;4.57;;
4138;SDS011;2083;51.034;6.996;2022-10-04T07:35:29;5.30;;;3.77;;
4138;SDS011;2083;51.034;6.996;2022-10-04T07:38:04;9.50;;;6.43;;
4138;SDS011;2083;51.034;6.996;2022-10-04T07:40:32;3.97;;;3.60;;
4138;SDS011;2083;51.034;6.996;2022-10-04T07:43:05;6.97;;;5.67;;
4138;SDS011;2083;51.034;6.996;2022-10-04T07:45:35;6.73;;;5.40;;
4138;SDS011;2083;51.034;6.996;2022-10-04T07:48:04;9.83;;;5.70;;
4138;SDS011;2083;51.034;6.996;2022-10-04T07:50:36;9.30;;;6.13;;
4138;SDS011;2083;51.034;6.996;2022-10-04T07:53:07;7.57;;;6.20;;
4138;SDS011;2083;51.034;6.996;2022-10-04T07:55:51;10.30;;;6.77;;
4138;SDS011;2083;51.034;6.996;2022-10-04T08:06:06;12.00;;;6.10;;
4138;SDS011;2083;51.034;6.996;2022-10-04T08:11:17;9.40;;;5.97;;
4138;SDS011;2083;51.034;6.996;2022-10-04T08:19:13;7.07;;;4.53;;
4138;SDS011;2083;51.034;6.996;2022-10-04T08:21:49;11.10;;;5.80;;
4138;SDS011;2083;51.034;6.996;2022-10-04T08:29:28;8.00;;;4.30;;
4138;SDS011;2083;51.034;6.996;2022-10-04T08:35:07;12.27;;;5.57;;
4138;SDS011;2083;51.034;6.996;2022-10-04T08:56:25;6.67;;;3.07;;
4138;SDS011;2083;51.034;6.996;2022-10-04T09:15:32;5.03;;;4.00;;
4138;SDS011;2083;51.034;6.996;2022-10-04T09:28:43;4.87;;;3.10;;
4138;SDS011;2083;51.034;6.996;2022-10-04T09:36:38;6.40;;;4.10;;
4138;SDS011;2083;51.034;6.996;2022-10-04T09:57:43;4.43;;;3.37;;
4138;SDS011;2083;51.034;6.996;2022-10-04T10:05:25;4.20;;;2.70;;
4138;SDS011;2083;51.034;6.996;2022-10-04T10:07:57;5.97;;;3.30;;
4138;SDS011;2083;51.034;6.996;2022-10-04T10:10:28;3.90;;;3.60;;
4138;SDS011;2083;51.034;6.996;2022-10-04T10:16:11;8.10;;;3.23;;
4138;SDS011;2083;51.034;6.996;2022-10-04T10:19:30;4.23;;;3.37;;
4138;SDS011;2083;51.034;6.996;2022-10-04T10:21:50;2.97;;;2.77;;
4138;SDS011;2083;51.034;6.996;2022-10-04T10:26:51;2.43;;;2.20;;
4138;SDS011;2083;51.034;6.996;2022-10-04T10:32:15;4.10;;;3.03;;
4138;SDS011;2083;51.034;6.996;2022-10-04T10:45:53;5.70;;;3.27;;
4138;SDS011;2083;51.034;6.996;2022-10-04T10:51:08;3.13;;;2.83;;
4138;SDS011;2083;51.034;6.996;2022-10-04T11:04:05;4.07;;;2.90;;
4138;SDS011;2083;51.034;6.996;2022-10-04T11:17:47;3.60;;;3.30;;
4138;SDS011;2083;51.034;6.996;2022-10-04T11:23:10;4.40;;;2.90;;
4138;SDS011;2083;51.034;6.996;2022-10-04T11:28:27;3.43;;;3.13;;
4138;SDS011;2083;51.034;6.996;2022-10-04T11:38:46;5.63;;;3.50;;
4138;SDS011;2083;51.034;6.996;2022-10-04T11:57:30;3.70;;;2.90;;
4138;SDS011;2083;51.034;6.996;2022-10-04T12:00:06;3.20;;;1.97;;
4138;SDS011;2083;51.034;6.996;2022-10-04T12:10:36;10.80;;;2.90;;
4138;SDS011;2083;51.034;6.996;2022-10-04T12:13:07;5.80;;;4.23;;
4138;SDS011;2083;51.034;6.996;2022-10-04T12:15:36;4.30;;;3.90;;
4138;SDS011;2083;51.034;6.996;2022-10-04T12:18:15;6.13;;;3.80;;
4138;SDS011;2083;51.034;6.996;2022-10-04T12:31:23;3.30;;;3.10;;
4138;SDS011;2083;51.034;6.996;2022-10-04T12:39:21;3.40;;;3.10;;
4138;SDS011;2083;51.034;6.996;2022-10-04T12:42:14;4.73;;;3.20;;
4138;SDS011;2083;51.034;6.996;2022-10-04T12:50:18;5.80;;;2.60;;
4138;SDS011;2083;51.034;6.996;2022-10-04T12:52:58;3.43;;;3.13;;
4138;SDS011;2083;51.034;6.996;2022-10-04T12:55:47;3.33;;;2.80;;
4138;SDS011;2083;51.034;6.996;2022-10-04T12:58:20;7.37;;;3.47;;
4138;SDS011;2083;51.034;6.996;2022-10-04T13:00:48;6.80;;;3.40;;
4138;SDS011;2083;51.034;6.996;2022-10-04T13:08:18;3.17;;;2.97;;
4138;SDS011;2083;51.034;6.996;2022-10-04T13:13:51;2.47;;;2.27;;
4138;SDS011;2083;51.034;6.996;2022-10-04T13:21:55;7.30;;;3.90;;
4138;SDS011;2083;51.034;6.996;2022-10-04T13:26:53;3.23;;;3.00;;
4138;SDS011;2083;51.034;6.996;2022-10-04T13:29:23;5.50;;;2.07;;
4138;SDS011;2083;51.034;6.996;2022-10-04T13:31:55;3.90;;;3.47;;
4138;SDS011;2083;51.034;6.996;2022-10-04T13:41:54;5.20;;;3.67;;
4138;SDS011;2083;51.034;6.996;2022-10-04T13:49:23;3.87;;;3.50;;
4138;SDS011;2083;51.034;6.996;2022-10-04T13:51:58;7.93;;;4.07;;
4138;SDS011;2083;51.034;6.996;2022-10-04T13:54:54;4.40;;;2.13;;
4138;SDS011;2083;51.034;6.996;2022-10-04T13:57:41;3.60;;;3.30;;
4138;SDS011;2083;51.034;6.996;2022-10-04T14:00:11;3.47;;;2.87;;
4138;SDS011;2083;51.034;6.996;2022-10-04T14:05:31;8.40;;;3.17;;
4138;SDS011;2083;51.034;6.996;2022-10-04T14:24:32;3.20;;;3.00;;
4138;SDS011;2083;51.034;6.996;2022-10-04T14:42:57;3.43;;;3.27;;
4138;SDS011;2083;51.034;6.996;2022-10-04T14:48:22;3.90;;;3.60;;
4138;SDS011;2083;51.034;6.996;2022-10-04T14:54:27;5.53;;;3.00;;
4138;SDS011;2083;51.034;6.996;2022-10-04T14:59:03;4.17;;;3.03;;
4138;SDS011;2083;51.034;6.996;2022-10-04T15:01:32;4.50;;;2.77;;
4138;SDS011;2083;51.034;6.996;2022-10-04T15:06:44;4.17;;;3.13;;
4138;SDS011;2083;51.034;6.996;2022-10-04T15:14:37;5.17;;;2.40;;
4138;SDS011;2083;51.034;6.996;2022-10-04T15:17:09;15.03;;;3.33;;
4138;SDS011;2083;51.034;6.996;2022-10-04T15:19:58;5.93;;;3.37;;
4138;SDS011;2083;51.034;6.996;2022-10-04T15:22:43;11.87;;;3.80;;
4138;SDS011;2083;51.034;6.996;2022-10-04T15:27:55;7.43;;;2.63;;
4138;SDS011;2083;51.034;6.996;2022-10-04T15:30:33;3.10;;;2.80;;
4138;SDS011;2083;51.034;6.996;2022-10-04T15:33:07;4.20;;;2.93;;
4138;SDS011;2083;51.034;6.996;2022-10-04T15:38:29;2.80;;;2.60;;
4138;SDS011;2083;51.034;6.996;2022-10-04T15:41:05;5.33;;;3.90;;
4138;SDS011;2083;51.034;6.996;2022-10-04T15:51:57;6.30;;;3.23;;
4138;SDS011;2083;51.034;6.996;2022-10-04T15:54:56;4.87;;;3.33;;
4138;SDS011;2083;51.034;6.996;2022-10-04T15:57:28;11.60;;;3.77;;
4138;SDS011;2083;51.034;6.996;2022-10-04T16:00:01;4.03;;;3.30;;
4138;SDS011;2083;51.034;6.996;2022-10-04T16:02:35;5.57;;;3.03;;
4138;SDS011;2083;51.034;6.996;2022-10-04T16:05:06;6.20;;;3.50;;
4138;SDS011;2083;51.034;6.996;2022-10-04T16:10:16;3.80;;;3.50;;
4138;SDS011;2083;51.034;6.996;2022-10-04T16:15:31;4.83;;;3.50;;
4138;SDS011;2083;51.034;6.996;2022-10-04T16:20:47;4.03;;;3.73;;
4138;SDS011;2083;51.034;6.996;2022-10-04T16:25:48;4.80;;;3.53;;
4138;SDS011;2083;51.034;6.996;2022-10-04T16:31:09;7.23;;;4.43;;
4138;SDS011;2083;51.034;6.996;2022-10-04T16:33:43;4.93;;;4.40;;
4138;SDS011;2083;51.034;6.996;2022-10-04T16:36:17;3.70;;;3.40;;
4138;SDS011;2083;51.034;6.996;2022-10-04T16:38:51;5.47;;;3.53;;
4138;SDS011;2083;51.034;6.996;2022-10-04T16:41:39;5.67;;;4.03;;
4138;SDS011;2083;51.034;6.996;2022-10-04T16:44:11;9.00;;;4.23;;
4138;SDS011;2083;51.034;6.996;2022-10-04T16:46:46;3.97;;;3.67;;
4138;SDS011;2083;51.034;6.996;2022-10-04T16:49:19;4.80;;;4.00;;
4138;SDS011;2083;51.034;6.996;2022-10-04T16:51:52;4.97;;;4.47;;
4138;SDS011;2083;51.034;6.996;2022-10-04T16:54:37;9.93;;;4.90;;
4138;SDS011;2083;51.034;6.996;2022-10-04T16:57:11;10.73;;;5.57;;
4138;SDS011;2083;51.034;6.996;2022-10-04T17:04:46;8.90;;;4.97;;
4138;SDS011;2083;51.034;6.996;2022-10-04T17:07:21;13.23;;;4.93;;
4138;SDS011;2083;51.034;6.996;2022-10-04T17:12:23;4.60;;;4.27;;
4138;SDS011;2083;51.034;6.996;2022-10-04T17:20:11;5.83;;;5.03;;
4138;SDS011;2083;51.034;6.996;2022-10-04T17:28:18;7.93;;;5.33;;
4138;SDS011;2083;51.034;6.996;2022-10-04T17:33:28;7.53;;;4.50;;
4138;SDS011;2083;51.034;6.996;2022-10-04T17:36:05;8.67;;;4.93;;
4138;SDS011;2083;51.034;6.996;2022-10-04T17:38:54;3.87;;;3.47;;
4138;SDS011;2083;51.034;6.996;2022-10-04T17:49:38;4.40;;;3.73;;
4138;SDS011;2083;51.034;6.996;2022-10-04T17:52:26;7.63;;;4.83;;
4138;SDS011;2083;51.034;6.996;2022-10-04T17:55:23;5.60;;;5.10;;
4138;SDS011;2083;51.034;6.996;2022-10-04T18:00:57;6.67;;;4.50;;
4138;SDS011;2083;51.034;6.996;2022-10-04T18:03:30;5.57;;;5.00;;
4138;SDS011;2083;51.034;6.996;2022-10-04T18:06:01;10.87;;;4.93;;
4138;SDS011;2083;51.034;6.996;2022-10-04T18:08:53;18.77;;;5.60;;
4138;SDS011;2083;51.034;6.996;2022-10-04T18:11:31;12.00;;;5.03;;
4138;SDS011;2083;51.034;6.996;2022-10-04T18:14:01;9.03;;;5.00;;
4138;SDS011;2083;51.034;6.996;2022-10-04T18:16:30;5.13;;;4.73;;
4138;SDS011;2083;51.034;6.996;2022-10-04T18:18:56;5.50;;;5.10;;
4138;SDS011;2083;51.034;6.996;2022-10-04T18:21:26;6.13;;;5.63;;
4138;SDS011;2083;51.034;6.996;2022-10-04T18:23:54;6.83;;;5.63;;
4138;SDS011;2083;51.034;6.996;2022-10-04T18:26:21;5.67;;;5.00;;
4138;SDS011;2083;51.034;6.996;2022-10-04T18:28:48;5.53;;;3.73;;
4138;SDS011;2083;51.034;6.996;2022-10-04T18:34:15;7.60;;;4.63;;
4138;SDS011;2083;51.034;6.996;2022-10-04T18:36:49;7.00;;;5.40;;
4138;SDS011;2083;51.034;6.996;2022-10-04T18:39:17;10.07;;;4.73;;
4138;SDS011;2083;51.034;6.996;2022-10-04T18:41:44;7.03;;;5.23;;
4138;SDS011;2083;51.034;6.996;2022-10-04T18:44:29;5.43;;;4.73;;
4138;SDS011;2083;51.034;6.996;2022-10-04T18:47:13;7.87;;;5.47;;
4138;SDS011;2083;51.034;6.996;2022-10-04T18:49:45;5.20;;;4.63;;
4138;SDS011;2083;51.034;6.996;2022-10-04T18:57:39;7.30;;;5.70;;
4138;SDS011;2083;51.034;6.996;2022-10-04T19:00:25;5.77;;;5.37;;
4138;SDS011;2083;51.034;6.996;2022-10-04T19:03:29;6.40;;;5.73;;
4138;SDS011;2083;51.034;6.996;2022-10-04T19:06:05;7.80;;;6.40;;
4138;SDS011;2083;51.034;6.996;2022-10-04T19:11:08;10.80;;;5.63;;
4138;SDS011;2083;51.034;6.996;2022-10-04T19:22:10;8.20;;;5.50;;
4138;SDS011;2083;51.034;6.996;2022-10-04T19:27:24;6.50;;;5.90;;
4138;SDS011;2083;51.034;6.996;2022-10-04T19:32:28;5.67;;;5.13;;
4138;SDS011;2083;51.034;6.996;2022-10-04T19:37:26;7.53;;;5.53;;
4138;SDS011;2083;51.034;6.996;2022-10-04T19:44:52;7.50;;;5.17;;
4138;SDS011;2083;51.034;6.996;2022-10-04T19:57:37;5.03;;;4.53;;
4138;SDS011;2083;51.034;6.996;2022-10-04T20:00:12;5.80;;;5.03;;
4138;SDS011;2083;51.034;6.996;2022-10-04T20:02:40;5.47;;;4.67;;
4138;SDS011;2083;51.034;6.996;2022-10-04T20:05:13;5.70;;;4.90;;
4138;SDS011;2083;51.034;6.996;2022-10-04T20:07:40;7.40;;;4.40;;
4138;SDS011;2083;51.034;6.996;2022-10-04T20:10:14;10.70;;;4.87;;
4138;SDS011;2083;51.034;6.996;2022-10-04T20:13:03;5.50;;;5.10;;
4138;SDS011;2083;51.034;6.996;2022-10-04T20:18:05;4.97;;;4.57;;
4138;SDS011;2083;51.034;6.996;2022-10-04T20:43:56;11.60;;;4.83;;
4138;SDS011;2083;51.034;6.996;2022-10-04T20:46:23;5.43;;;4.93;;
4138;SDS011;2083;51.034;6.996;2022-10-04T20:48:50;13.77;;;5.10;;
4138;SDS011;2083;51.034;6.996;2022-10-04T20:51:17;8.90;;;4.77;;
4138;SDS011;2083;51.034;6.996;2022-10-04T20:53:43;5.70;;;5.20;;
4138;SDS011;2083;51.034;6.996;2022-10-04T20:58:50;11.23;;;6.60;;
4138;SDS011;2083;51.034;6.996;2022-10-04T21:01:20;15.17;;;6.33;;
4138;SDS011;2083;51.034;6.996;2022-10-04T21:07:09;6.67;;;6.07;;
4138;SDS011;2083;51.034;6.996;2022-10-04T21:09:37;8.77;;;5.93;;
4138;SDS011;2083;51.034;6.996;2022-10-04T21:12:03;5.50;;;4.97;;
4138;SDS011;2083;51.034;6.996;2022-10-04T21:14:30;8.40;;;5.33;;
4138;SDS011;2083;51.034;6.996;2022-10-04T21:16:57;7.23;;;5.60;;
4138;SDS011;2083;51.034;6.996;2022-10-04T21:19:27;5.67;;;5.00;;
4138;SDS011;2083;51.034;6.996;2022-10-04T21:21:53;6.00;;;5.13;;
4138;SDS011;2083;51.034;6.996;2022-10-04T21:24:26;5.30;;;4.90;;
4138;SDS011;2083;51.034;6.996;2022-10-04T21:26:55;8.17;;;4.83;;
4138;SDS011;2083;51.034;6.996;2022-10-04T21:29:22;8.27;;;6.07;;
4138;SDS011;2083;51.034;6.996;2022-10-04T21:31:48;5.70;;;4.80;;
4138;SDS011;2083;51.034;6.996;2022-10-04T21:34:13;7.83;;;5.40;;
4138;SDS011;2083;51.034;6.996;2022-10-04T21:36:39;5.60;;;4.83;;
4138;SDS011;2083;51.034;6.996;2022-10-04T21:39:05;4.77;;;4.40;;
4138;SDS011;2083;51.034;6.996;2022-10-04T21:41:31;10.43;;;5.40;;
4138;SDS011;2083;51.034;6.996;2022-10-04T21:43:57;5.97;;;5.20;;
4138;SDS011;2083;51.034;6.996;2022-10-04T21:46:23;7.03;;;6.07;;
4138;SDS011;2083;51.034;6.996;2022-10-04T21:48:49;6.53;;;5.27;;
4138;SDS011;2083;51.034;6.996;2022-10-04T21:51:15;4.50;;;3.57;;
4138;SDS011;2083;51.034;6.996;2022-10-04T21:53:41;6.23;;;5.20;;
4138;SDS011;2083;51.034;6.996;2022-10-04T21:56:07;5.87;;;5.10;;
4138;SDS011;2083;51.034;6.996;2022-10-04T21:58:33;5.70;;;5.10;;
4138;SDS011;2083;51.034;6.996;2022-10-04T22:00:59;8.30;;;5.17;;
4138;SDS011;2083;51.034;6.996;2022-10-04T22:03:25;4.77;;;4.43;;
4138;SDS011;2083;51.034;6.996;2022-10-04T22:05:50;5.67;;;5.20;;
4138;SDS011;2083;51.034;6.996;2022-10-04T22:08:16;8.30;;;4.80;;
4138;SDS011;2083;51.034;6.996;2022-10-04T22:10:42;4.80;;;4.40;;
4138;SDS011;2083;51.034;6.996;2022-10-04T22:13:09;5.37;;;4.87;;
4138;SDS011;2083;51.034;6.996;2022-10-04T22:15:35;5.93;;;5.17;;
4138;SDS011;2083;51.034;6.996;2022-10-04T22:18:01;5.67;;;4.93;;
4138;SDS011;2083;51.034;6.996;2022-10-04T22:20:27;5.13;;;4.73;;
4138;SDS011;2083;51.034;6.996;2022-10-04T22:22:53;5.33;;;4.83;;
4138;SDS011;2083;51.034;6.996;2022-10-04T22:25:20;6.33;;;5.07;;
4138;SDS011;2083;51.034;6.996;2022-10-04T22:27:47;4.23;;;4.03;;
4138;SDS011;2083;51.034;6.996;2022-10-04T22:30:34;5.60;;;5.00;;
4138;SDS011;2083;51.034;6.996;2022-10-04T22:33:00;5.17;;;4.80;;
4138;SDS011;2083;51.034;6.996;2022-10-04T22:35:27;6.27;;;5.40;;
4138;SDS011;2083;51.034;6.996;2022-10-04T22:37:54;8.27;;;5.80;;
4138;SDS011;2083;51.034;6.996;2022-10-04T22:40:21;4.73;;;4.43;;
4138;SDS011;2083;51.034;6.996;2022-10-04T22:42:49;5.10;;;4.70;;
4138;SDS011;2083;51.034;6.996;2022-10-04T22:45:33;5.47;;;5.10;;
4138;SDS011;2083;51.034;6.996;2022-10-04T22:48:05;6.00;;;5.40;;
4138;SDS011;2083;51.034;6.996;2022-10-04T22:50:35;6.97;;;5.17;;
4138;SDS011;2083;51.034;6.996;2022-10-04T22:53:13;4.73;;;4.33;;
4138;SDS011;2083;51.034;6.996;2022-10-04T22:55:41;5.03;;;4.63;;
4138;SDS011;2083;51.034;6.996;2022-10-04T22:58:13;7.43;;;5.00;;
4138;SDS011;2083;51.034;6.996;2022-10-04T23:00:39;5.30;;;4.93;;
4138;SDS011;2083;51.034;6.996;2022-10-04T23:03:38;5.00;;;4.50;;
4138;SDS011;2083;51.034;6.996;2022-10-04T23:05:58;5.43;;;5.03;;
4138;SDS011;2083;51.034;6.996;2022-10-04T23:08:25;5.00;;;4.60;;
4138;SDS011;2083;51.034;6.996;2022-10-04T23:10:52;9.53;;;5.43;;
4138;SDS011;2083;51.034;6.996;2022-10-04T23:13:21;7.20;;;4.90;;
4138;SDS011;2083;51.034;6.996;2022-10-04T23:15:48;5.53;;;4.60;;
4138;SDS011;2083;51.034;6.996;2022-10-04T23:18:14;9.00;;;5.23;;
4138;SDS011;2083;51.034;6.996;2022-10-04T23:20:40;5.20;;;4.80;;
4138;SDS011;2083;51.034;6.996;2022-10-04T23:23:10;5.83;;;5.23;;
4138;SDS011;2083;51.034;6.996;2022-10-04T23:25:36;6.70;;;4.97;;
4138;SDS011;2083;51.034;6.996;2022-10-04T23:28:10;4.20;;;4.00;;
4138;SDS011;2083;51.034;6.996;2022-10-04T23:30:36;6.50;;;5.37;;
4138;SDS011;2083;51.034;6.996;2022-10-04T23:33:05;7.13;;;4.97;;
4138;SDS011;2083;51.034;6.996;2022-10-04T23:35:36;5.77;;;5.13;;
4138;SDS011;2083;51.034;6.996;2022-10-04T23:38:03;5.23;;;4.90;;
4138;SDS011;2083;51.034;6.996;2022-10-04T23:40:31;5.20;;;4.70;;
4138;SDS011;2083;51.034;6.996;2022-10-04T23:42:57;5.00;;;4.60;;
4138;SDS011;2083;51.034;6.996;2022-10-04T23:45:25;5.30;;;5.00;;
4138;SDS011;2083;51.034;6.996;2022-10-04T23:47:55;5.57;;;5.00;;
4138;SDS011;2083;51.034;6.996;2022-10-04T23:50:23;2.50;;;2.40;;
4138;SDS011;2083;51.034;6.996;2022-10-04T23:52:50;5.00;;;4.37;;
4138;SDS011;2083;51.034;6.996;2022-10-04T23:55:17;5.43;;;4.70;;
4138;SDS011;2083;51.034;6.996;2022-10-04T23:57:43;6.37;;;4.77;;
